New Hampton, IA

7:19 PM CST on February 05, 2016 (GMT -0600)
Spillville Iowa | | Change Station
CLOSE
Current Station
Personal Weather Station
Location: Fort Atkinson, IA
Elevation: 1129 ft
Nearby Weather Stations

Elev 1129 ft 43.17 °N, 91.97 °W | Updated 10 minutes ago

Overcast
Overcast
21.6 °F
Feels Like 22 °F
N
1.0
Wind Variable Wind from SSE
Gusts 7.0 mph

Today
High -- | Low -- °F
--% Chance of Precip.
Yesterday
High -- | Low -- °F
Precip. -- in
Pressure 30.27 in
Visibility 10.0 miles
Clouds Mostly Cloudy 3600 ft
Overcast 4100 ft
Windchill 22 °F
Dew Point 18 °F
Humidity 87%
Rainfall 0.00 in
Snow Depth Not available.
7:20 AM 5:26 PM
Waning Crescent, 8% visible
METAR KCCY 060055Z AUTO 18009KT 10SM BKN036 OVC041 M05/M06 A3027 RMK AO2
Pressure 30.27 in
Visibility 10.0 miles
Clouds Mostly Cloudy 3600 ft
Overcast 4100 ft
Windchill 22 °F
Dew Point 18 °F
Humidity 87%
Rainfall 0.00 in
Snow Depth Not available.
7:20 AM 5:26 PM
Waning Crescent, 8% visible
METAR KCCY 060055Z AUTO 18009KT 10SM BKN036 OVC041 M05/M06 A3027 RMK AO2

10-Day Weather Forecast

Almanac

Astronomy

Feb. 05, 2016 Rise Set
Actual Time
Civil Twilight
Nautical Twilight
Astronomical Twilight
Moon
Length of Visible Light
Length of Day
Tomorrow will be .
, % of the Moon is Illuminated

Today's Extremes

State Highs State Lows

Community

WunderPhotos

Upload Photos

1,890,904 photos uploaded!

WunderBlog® & News

Nearby

Air Quality

  Air Quality AQ Index Pollutant
Not available.

Snow Depth

Station Depth Elevation

Earthquake Activity

City Distance Mag. Time & Date
Minimum magnitude displayed is 2.5.

Coastal Water Temperatures

Place Temperature

Stations

Nearby Weather Stations

Station Location Temp. Windchill Dew Point Humidity Wind Precip. Elev Updated Type
                   

Watches & Warnings

There are currently no watches in effect.